Terminal Aerodrome Forecast
Issued by NWS

Home | Current Version | Previous Version | Text Only | Print | Product List | Glossary On
Versions: 1 2 3 4 5 6 7 8 9 10 11 12 13 14 15 16 17 18 19 20 21 22
634
FTUS43 KAPX 211737
TAFMBL
TAF
KMBL 211737Z 2118/2218 12008KT 3SM BR OVC002
     FM212100 13008KT P6SM OVC005
     FM220000 VRB03KT P6SM BKN009
     FM220300 20004KT 3SM BR OVC006
     FM220700 VRB03KT 1SM BR OVC002
     FM221500 10003KT 5SM BR OVC012=

USA.gov is the U.S. government's official web portal to all federal, state and local government web resources and services.